Sign-in with your pilot id or email, or register

ICAO: LDZA Name / Country: Zagreb/Pleso / Croatia
Latitude: 45.7429 Longitude: 16.0688
Total Arrivals:
Strict Standards: Non-static method AirportData::getarrflights() should not be called statically, assuming $this from incompatible context in /var/www/customers/vh-7192/web/home/phpvms/core/templates/airport_info.tpl on line 18
25
Total Departures:
Strict Standards: Non-static method AirportData::getdeptflights() should not be called statically, assuming $this from incompatible context in /var/www/customers/vh-7192/web/home/phpvms/core/templates/airport_info.tpl on line 21
45
Latest Arrival: MTA474 (LHBP-LDZA) Tibor Berces Latest Departure: MTA474 (LDZA-LHBP) Tibor Berces
Metar: LDZA 220530Z 20002KT 9999 MIFG FEW027 09/08 Q1022 NOSIG
More info

Charts for LDZA


NOTAM


Warning: file_get_contents(http://api.vateud.net/notams/LDZA.json): failed to open stream: Redirection limit reached, aborting in /var/www/customers/vh-7192/web/home/phpvms/core/common/NOTAMSData.class.php on line 18

Warning: Invalid argument supplied for foreach() in /var/www/customers/vh-7192/web/home/phpvms/core/common/NOTAMSData.class.php on line 22

Zagreb/Pleso